createdAt,value
2022-07-28T00:02:07.464Z,11.97
2022-07-28T00:04:36.591Z,13.57
2022-07-28T00:07:09.919Z,14.10
2022-07-28T00:12:48.003Z,13.97
2022-07-28T00:15:16.819Z,12.93
2022-07-28T00:17:45.496Z,13.13
2022-07-28T00:20:14.427Z,14.37
2022-07-28T00:22:45.420Z,13.70
2022-07-28T00:25:14.275Z,12.27
2022-07-28T00:27:43.159Z,15.67
2022-07-28T00:30:13.061Z,13.50
2022-07-28T00:32:41.836Z,14.57
2022-07-28T00:35:10.879Z,12.53
2022-07-28T00:37:41.194Z,13.53
2022-07-28T00:40:12.838Z,13.00
2022-07-28T00:42:41.623Z,14.50
2022-07-28T00:45:10.924Z,13.93
2022-07-28T00:47:39.328Z,13.67
2022-07-28T00:50:08.660Z,13.93
2022-07-28T00:52:37.190Z,13.07
2022-07-28T00:55:06.573Z,14.40
2022-07-28T00:57:36.217Z,12.60
2022-07-28T01:00:06.001Z,13.20
2022-07-28T01:02:34.684Z,14.00
2022-07-28T01:05:03.625Z,14.03
2022-07-28T01:07:36.614Z,13.00
2022-07-28T01:10:08.555Z,12.43
2022-07-28T01:12:49.817Z,11.83
2022-07-28T01:15:23.969Z,12.87
2022-07-28T01:17:57.622Z,13.13
2022-07-28T01:20:32.069Z,13.30
2022-07-28T01:23:10.772Z,14.67
2022-07-28T01:25:49.349Z,13.70
2022-07-28T01:28:30.398Z,12.23
2022-07-28T01:31:04.487Z,14.43
2022-07-28T01:33:36.101Z,17.50
2022-07-28T01:36:09.976Z,14.27
2022-07-28T01:38:39.979Z,14.67
2022-07-28T01:41:12.533Z,15.37
2022-07-28T01:43:43.468Z,14.40
2022-07-28T01:46:14.248Z,15.13
2022-07-28T01:48:43.791Z,13.27
2022-07-28T01:51:12.774Z,13.40
2022-07-28T01:53:41.498Z,14.13
2022-07-28T01:56:10.293Z,13.17
2022-07-28T01:58:39.343Z,14.83
2022-07-28T02:01:08.729Z,12.60
2022-07-28T02:03:38.882Z,13.67
2022-07-28T02:06:07.787Z,15.37
2022-07-28T02:08:39.863Z,12.87
2022-07-28T02:11:26.671Z,15.00
2022-07-28T02:13:56.830Z,14.70
2022-07-28T02:16:26.980Z,13.97
2022-07-28T02:18:57.431Z,18.20
2022-07-28T02:57:11.106Z,15.73
2022-07-28T03:02:44.115Z,14.70
2022-07-28T03:05:29.944Z,14.67
2022-07-28T03:07:59.697Z,15.17
2022-07-28T03:13:39.751Z,13.77
2022-07-28T03:16:09.164Z,13.80
2022-07-28T03:18:37.950Z,15.13
2022-07-28T03:21:10.667Z,14.07
2022-07-28T03:23:43.216Z,13.80
2022-07-28T03:26:15.579Z,14.50
2022-07-28T03:28:46.473Z,14.40
2022-07-28T03:56:55.277Z,17.43
2022-07-28T03:59:26.079Z,17.60
2022-07-28T04:01:56.773Z,17.87
2022-07-28T04:04:27.297Z,16.53
2022-07-28T04:06:55.947Z,15.63
2022-07-28T04:09:24.812Z,16.30
2022-07-28T04:11:53.678Z,15.77
2022-07-28T04:14:26.315Z,15.23
2022-07-28T04:16:58.183Z,14.60
2022-07-28T04:19:26.777Z,14.60
2022-07-28T04:21:55.632Z,13.50
2022-07-28T04:24:24.741Z,13.27
2022-07-28T04:30:04.979Z,14.23
2022-07-28T04:32:33.549Z,13.10
2022-07-28T04:35:01.907Z,12.67
2022-07-28T04:37:32.511Z,13.80
2022-07-28T04:40:00.940Z,23.17
2022-07-28T04:42:29.398Z,13.43
2022-07-28T04:44:57.547Z,13.03
2022-07-28T04:47:29.082Z,12.83
2022-07-28T04:49:57.566Z,12.97
2022-07-28T04:52:27.090Z,12.60
2022-07-28T04:54:55.528Z,13.33
2022-07-28T04:57:23.764Z,12.47
2022-07-28T04:59:54.383Z,12.90
2022-07-28T05:02:25.065Z,12.60
2022-07-28T05:04:54.828Z,12.13
2022-07-28T05:07:23.311Z,12.27
2022-07-28T05:09:52.141Z,11.80
2022-07-28T05:12:20.479Z,12.73
2022-07-28T05:14:49.054Z,11.50
2022-07-28T05:17:17.285Z,12.07
2022-07-28T05:19:45.480Z,10.47
2022-07-28T05:22:15.105Z,9.90
2022-07-28T05:24:43.287Z,10.77
2022-07-28T05:27:12.781Z,10.80
2022-07-28T05:29:47.452Z,10.87
2022-07-28T05:32:18.055Z,11.93
2022-07-28T05:34:46.577Z,12.40
2022-07-28T05:37:16.364Z,11.77
2022-07-28T05:39:44.666Z,11.20
2022-07-28T05:42:12.876Z,10.53
2022-07-28T05:44:41.053Z,15.07
2022-07-28T05:47:09.415Z,10.50
2022-07-28T05:49:38.540Z,11.30
2022-07-28T05:52:07.416Z,10.80
2022-07-28T05:54:37.117Z,11.50
2022-07-28T05:57:05.532Z,12.53
2022-07-28T05:59:33.673Z,10.93
2022-07-28T06:02:03.553Z,10.80
2022-07-28T06:04:32.090Z,10.83
2022-07-28T06:07:00.593Z,11.57
2022-07-28T06:09:28.885Z,10.80
2022-07-28T06:11:58.552Z,10.50
2022-07-28T06:14:26.848Z,10.80
2022-07-28T06:16:55.110Z,9.70
2022-07-28T06:19:23.458Z,10.70
2022-07-28T06:21:52.519Z,9.53
2022-07-28T06:24:20.706Z,8.30
2022-07-28T06:26:49.179Z,12.20
2022-07-28T06:29:18.866Z,9.50
2022-07-28T06:31:47.173Z,8.53
2022-07-28T06:34:15.714Z,9.60
2022-07-28T06:36:44.231Z,8.63
2022-07-28T06:39:12.820Z,9.30
2022-07-28T06:41:44.558Z,9.20
2022-07-28T06:44:14.380Z,8.60
2022-07-28T06:46:44.679Z,9.47
2022-07-28T06:49:13.263Z,8.57
2022-07-28T06:51:41.844Z,8.90
2022-07-28T06:54:11.556Z,7.63
2022-07-28T06:56:40.101Z,6.90
2022-07-28T06:59:10.381Z,9.43
2022-07-28T07:01:38.597Z,13.03
2022-07-28T07:04:09.263Z,6.77
2022-07-28T07:06:37.622Z,7.70
2022-07-28T07:09:05.829Z,9.43
2022-07-28T07:11:34.081Z,6.83
2022-07-28T07:14:02.779Z,10.30
2022-07-28T07:16:31.187Z,9.00
2022-07-28T07:18:59.499Z,6.97
2022-07-28T07:21:29.165Z,7.03
2022-07-28T07:23:58.324Z,7.13
2022-07-28T07:26:26.538Z,12.40
2022-07-28T07:28:54.715Z,7.10
2022-07-28T07:31:23.143Z,6.60
2022-07-28T07:33:51.508Z,8.30
2022-07-28T07:36:19.784Z,8.30
2022-07-28T07:38:49.289Z,7.13
2022-07-28T07:41:18.921Z,8.93
2022-07-28T07:43:47.869Z,6.50
2022-07-28T07:46:16.389Z,9.93
2022-07-28T07:48:44.867Z,13.43
2022-07-28T07:51:15.559Z,6.60
2022-07-28T07:53:43.913Z,6.60
2022-07-28T07:56:14.644Z,11.00
2022-07-28T07:58:42.851Z,6.20
2022-07-28T08:01:12.998Z,6.53
2022-07-28T08:03:41.175Z,9.00
2022-07-28T08:06:10.371Z,6.70
2022-07-28T08:08:45.127Z,6.83
2022-07-28T08:11:18.282Z,6.17
2022-07-28T08:13:46.480Z,6.73
2022-07-28T08:16:14.741Z,6.70
2022-07-28T08:18:44.066Z,7.20
2022-07-28T08:21:13.171Z,6.23
2022-07-28T08:23:41.429Z,6.90
2022-07-28T08:26:09.672Z,6.60
2022-07-28T08:28:39.371Z,6.33
2022-07-28T08:31:07.636Z,6.27
2022-07-28T08:33:53.435Z,12.00
2022-07-28T08:36:22.549Z,9.83
2022-07-28T08:38:50.738Z,6.43
2022-07-28T08:41:34.030Z,5.47
2022-07-28T08:44:04.900Z,7.13
2022-07-28T08:46:36.370Z,5.00
2022-07-28T08:49:08.530Z,5.07
2022-07-28T08:51:38.569Z,5.53
2022-07-28T08:54:07.657Z,5.73
2022-07-28T08:56:37.447Z,4.90
2022-07-28T08:59:06.943Z,6.83
2022-07-28T09:01:38.968Z,5.40
2022-07-28T09:04:09.014Z,4.40
2022-07-28T09:06:42.074Z,6.10
2022-07-28T09:09:10.789Z,7.63
2022-07-28T09:11:39.222Z,4.90
2022-07-28T09:14:08.765Z,4.90
2022-07-28T09:16:37.237Z,5.40
2022-07-28T09:19:05.401Z,5.20
2022-07-28T09:21:33.761Z,5.73
2022-07-28T09:24:02.108Z,5.43
2022-07-28T09:26:30.327Z,5.97
2022-07-28T09:29:00.729Z,5.50
2022-07-28T09:31:30.709Z,5.03
2022-07-28T09:34:04.117Z,5.13
2022-07-28T09:36:39.091Z,5.77
2022-07-28T09:39:07.305Z,6.87
2022-07-28T09:41:47.726Z,4.60
2022-07-28T09:44:19.575Z,5.60
2022-07-28T09:46:49.431Z,6.20
2022-07-28T09:49:18.244Z,7.57
2022-07-28T09:52:00.840Z,6.20
2022-07-28T09:54:29.146Z,6.30
2022-07-28T09:56:57.385Z,9.00
2022-07-28T09:59:26.390Z,5.20
2022-07-28T10:02:01.572Z,6.17
2022-07-28T10:04:32.382Z,6.37
2022-07-28T10:07:06.737Z,4.30
2022-07-28T10:09:35.259Z,7.00
2022-07-28T10:12:17.230Z,4.70
2022-07-28T10:14:46.355Z,5.00
2022-07-28T10:17:25.866Z,5.10
2022-07-28T10:19:55.195Z,4.90
2022-07-28T10:22:24.643Z,4.70
2022-07-28T10:24:54.251Z,5.17
2022-07-28T10:27:24.939Z,6.80
2022-07-28T10:29:57.240Z,4.80
2022-07-28T10:32:27.505Z,4.83
2022-07-28T10:35:02.026Z,4.37
2022-07-28T10:37:32.517Z,5.37
2022-07-28T10:40:09.727Z,5.13
2022-07-28T10:42:40.294Z,5.20
2022-07-28T10:45:11.063Z,4.37
2022-07-28T10:47:40.819Z,5.30
2022-07-28T10:50:10.054Z,5.37
2022-07-28T10:52:48.207Z,4.33
2022-07-28T10:55:21.883Z,4.70
2022-07-28T10:58:01.726Z,4.93
2022-07-28T11:00:54.462Z,7.40
2022-07-28T11:03:40.959Z,4.80
2022-07-28T11:06:26.585Z,3.33
2022-07-28T11:08:55.301Z,4.70
2022-07-28T11:11:50.032Z,5.27
2022-07-28T11:14:37.693Z,5.53
2022-07-28T11:17:23.927Z,3.20
2022-07-28T11:20:24.823Z,3.50
2022-07-28T11:22:47.551Z,3.73
2022-07-28T11:25:22.201Z,4.33
2022-07-28T11:28:06.399Z,5.67
2022-07-28T11:30:54.305Z,3.17
2022-07-28T11:33:25.096Z,5.27
2022-07-28T11:35:59.645Z,3.57
2022-07-28T11:38:28.305Z,8.13
2022-07-28T11:40:57.408Z,4.63
2022-07-28T11:43:39.770Z,4.20
2022-07-28T11:46:33.973Z,3.60
2022-07-28T11:49:23.344Z,4.27
2022-07-28T11:52:19.521Z,4.13
2022-07-28T11:54:54.197Z,4.77
2022-07-28T11:57:27.338Z,4.53
2022-07-28T12:00:00.494Z,4.37
2022-07-28T12:02:33.310Z,4.57
2022-07-28T12:05:13.913Z,3.77
2022-07-28T12:07:46.316Z,6.83
2022-07-28T12:10:52.184Z,3.93
2022-07-28T12:13:14.981Z,4.03
2022-07-28T12:15:51.271Z,5.60
2022-07-28T12:18:19.568Z,3.70
2022-07-28T12:20:50.027Z,8.63
2022-07-28T12:23:44.090Z,3.73
2022-07-28T12:26:31.666Z,4.47
2022-07-28T12:29:01.079Z,4.30
2022-07-28T12:31:33.225Z,4.50
2022-07-28T12:34:01.885Z,4.43
2022-07-28T12:36:30.543Z,4.43
2022-07-28T12:39:01.432Z,4.37
2022-07-28T12:41:33.843Z,4.37
2022-07-28T12:44:05.561Z,3.70
2022-07-28T12:46:34.538Z,4.80
2022-07-28T12:49:03.401Z,3.70
2022-07-28T12:51:33.249Z,4.60
2022-07-28T12:54:03.131Z,4.50
2022-07-28T12:56:31.480Z,7.03
2022-07-28T12:59:08.315Z,3.93
2022-07-28T13:01:50.672Z,3.70
2022-07-28T13:04:38.036Z,3.87
2022-07-28T13:07:09.730Z,4.87
2022-07-28T13:09:47.092Z,5.53
2022-07-28T13:12:18.934Z,4.50
2022-07-28T13:14:51.960Z,5.33
2022-07-28T13:17:21.287Z,4.77
2022-07-28T13:19:50.411Z,8.60
2022-07-28T13:22:27.805Z,4.00
2022-07-28T13:24:58.081Z,4.30
2022-07-28T13:27:26.799Z,4.50
2022-07-28T13:29:55.726Z,4.00
2022-07-28T13:32:24.117Z,4.17
2022-07-28T13:34:52.881Z,7.17
2022-07-28T13:37:21.197Z,5.87
2022-07-28T13:39:54.243Z,4.37
2022-07-28T13:42:24.457Z,4.80
2022-07-28T13:44:52.761Z,6.23
2022-07-28T13:47:21.480Z,4.73
2022-07-28T13:49:49.693Z,4.83
2022-07-28T13:52:32.781Z,7.70
2022-07-28T13:55:07.769Z,4.63
2022-07-28T13:57:38.430Z,3.90
2022-07-28T14:00:12.377Z,4.40
2022-07-28T14:02:44.325Z,4.37
2022-07-28T14:05:13.093Z,5.27
2022-07-28T14:07:41.275Z,4.43
2022-07-28T14:10:10.971Z,4.50
2022-07-28T14:12:46.110Z,4.30
2022-07-28T14:15:15.429Z,4.63
2022-07-28T14:17:45.867Z,4.30
2022-07-28T14:20:15.553Z,4.63
2022-07-28T14:22:44.421Z,4.20
2022-07-28T14:25:20.669Z,4.23
2022-07-28T14:27:51.771Z,4.63
2022-07-28T14:30:20.732Z,6.13
2022-07-28T14:32:49.169Z,4.00
2022-07-28T14:35:17.579Z,5.10
2022-07-28T14:40:39.178Z,6.07
2022-07-28T14:43:09.641Z,4.47
2022-07-28T14:46:02.850Z,4.70
2022-07-28T14:48:26.750Z,4.50
2022-07-28T14:50:57.107Z,4.30
2022-07-28T14:53:27.741Z,4.40
2022-07-28T14:55:56.582Z,4.70
2022-07-28T14:58:26.174Z,5.37
2022-07-28T15:00:54.934Z,4.87
2022-07-28T15:03:23.173Z,5.53
2022-07-28T15:05:51.511Z,4.57
2022-07-28T15:08:19.660Z,5.13
2022-07-28T15:10:56.211Z,5.00
2022-07-28T15:13:24.485Z,4.23
2022-07-28T15:15:54.218Z,5.83
2022-07-28T15:18:22.415Z,4.70
2022-07-28T15:20:54.739Z,4.23
2022-07-28T15:23:23.098Z,4.47
2022-07-28T15:25:53.241Z,4.37
2022-07-28T15:28:22.144Z,4.80
2022-07-28T15:30:52.924Z,4.50
2022-07-28T15:33:24.130Z,5.57
2022-07-28T15:35:58.151Z,5.43
2022-07-28T15:38:29.447Z,4.03
2022-07-28T15:40:59.945Z,4.50
2022-07-28T15:43:29.078Z,4.13
2022-07-28T15:45:57.656Z,4.43
2022-07-28T15:48:27.339Z,4.50
2022-07-28T15:50:55.610Z,5.57
2022-07-28T15:53:23.973Z,4.73
2022-07-28T15:55:52.465Z,5.00
2022-07-28T15:58:20.966Z,4.57
2022-07-28T16:00:49.461Z,4.57
2022-07-28T16:03:18.179Z,4.73
2022-07-28T16:05:49.987Z,3.83
2022-07-28T16:08:22.572Z,4.37
2022-07-28T16:10:52.690Z,5.70
2022-07-28T16:13:36.113Z,4.73
2022-07-28T16:16:07.497Z,4.33
2022-07-28T16:18:36.596Z,4.03
2022-07-28T16:21:07.819Z,5.77
2022-07-28T16:23:36.646Z,4.57
2022-07-28T16:26:08.033Z,4.87
2022-07-28T16:28:36.950Z,4.60
2022-07-28T16:31:05.638Z,6.43
2022-07-28T16:33:34.286Z,5.20
2022-07-28T16:36:03.343Z,4.00
2022-07-28T16:38:33.119Z,6.33
2022-07-28T16:41:01.440Z,4.10
2022-07-28T16:43:29.831Z,4.83
2022-07-28T16:45:58.298Z,4.30
2022-07-28T16:48:26.563Z,4.70
2022-07-28T16:50:54.914Z,5.70
2022-07-28T16:53:23.326Z,4.50
2022-07-28T16:55:53.072Z,4.63
2022-07-28T16:58:22.353Z,4.67
2022-07-28T17:00:51.244Z,6.40
2022-07-28T17:03:19.524Z,4.93
2022-07-28T17:05:48.550Z,4.53
2022-07-28T17:08:16.805Z,4.37
2022-07-28T17:10:46.097Z,3.80
2022-07-28T17:13:17.085Z,4.53
2022-07-28T17:15:45.614Z,4.73
2022-07-28T17:18:13.953Z,4.60
2022-07-28T17:20:46.823Z,4.20
2022-07-28T17:23:15.181Z,5.60
2022-07-28T17:26:04.924Z,4.87
2022-07-28T17:28:33.329Z,4.20
2022-07-28T17:31:01.774Z,4.70
2022-07-28T17:33:31.308Z,4.47
2022-07-28T17:36:00.157Z,5.00
2022-07-28T17:38:32.965Z,4.10
2022-07-28T17:41:04.126Z,3.70
2022-07-28T17:43:35.029Z,4.40
2022-07-28T17:46:08.335Z,4.37
2022-07-28T17:48:39.110Z,4.03
2022-07-28T17:51:07.413Z,5.80
2022-07-28T17:53:39.252Z,5.80
2022-07-28T17:56:08.910Z,4.03
2022-07-28T17:58:39.023Z,4.37
2022-07-28T18:01:12.011Z,4.40
2022-07-28T18:03:56.871Z,4.70
2022-07-28T18:06:32.429Z,4.43
2022-07-28T18:09:06.727Z,13.53
2022-07-28T18:11:37.825Z,5.00
2022-07-28T18:14:26.071Z,4.87
2022-07-28T18:16:54.374Z,7.47
2022-07-28T18:19:22.739Z,6.97
2022-07-28T18:21:51.541Z,5.90
2022-07-28T18:24:22.061Z,5.40
2022-07-28T18:26:51.491Z,5.80
2022-07-28T18:29:21.052Z,5.33
2022-07-28T18:31:52.045Z,5.80
2022-07-28T18:34:24.265Z,5.80
2022-07-28T18:36:53.595Z,6.00
2022-07-28T18:39:22.141Z,5.27
2022-07-28T18:41:50.449Z,5.73
2022-07-28T18:44:19.698Z,7.23
2022-07-28T18:46:49.161Z,5.97
2022-07-28T18:49:20.129Z,8.13
2022-07-28T18:51:49.478Z,6.20
2022-07-28T18:54:27.744Z,5.33
2022-07-28T18:56:56.528Z,6.07
2022-07-28T18:59:24.780Z,6.27
2022-07-28T19:01:53.123Z,5.63
2022-07-28T19:04:22.778Z,5.87
2022-07-28T19:06:51.617Z,6.50
2022-07-28T19:09:19.871Z,8.77
2022-07-28T19:11:48.170Z,5.77
2022-07-28T19:14:16.811Z,7.97
2022-07-28T19:16:45.624Z,6.33
2022-07-28T19:19:14.467Z,7.93
2022-07-28T19:21:44.588Z,6.20
2022-07-28T19:24:14.341Z,5.33
2022-07-28T19:26:43.772Z,4.90
2022-07-28T19:29:12.105Z,6.13
2022-07-28T19:31:41.574Z,7.63
2022-07-28T19:34:09.949Z,5.83
2022-07-28T19:36:38.705Z,6.17
2022-07-28T19:39:08.576Z,6.67
2022-07-28T19:41:37.279Z,7.10
2022-07-28T19:44:05.874Z,9.30
2022-07-28T19:46:34.186Z,6.50
2022-07-28T19:49:02.535Z,10.60
2022-07-28T19:51:31.500Z,6.83
2022-07-28T19:54:00.562Z,6.03
2022-07-28T19:56:31.435Z,6.63
2022-07-28T19:59:00.331Z,6.37
2022-07-28T20:01:28.805Z,6.83
2022-07-28T20:04:01.128Z,7.40
2022-07-28T20:06:32.769Z,5.73
2022-07-28T20:09:01.517Z,8.57
2022-07-28T20:11:32.986Z,6.20
2022-07-28T20:14:01.968Z,6.80
2022-07-28T20:16:30.676Z,6.73
2022-07-28T20:18:59.574Z,7.23
2022-07-28T20:21:27.881Z,6.03
2022-07-28T20:23:57.132Z,9.53
2022-07-28T20:26:27.031Z,5.70
2022-07-28T20:28:58.512Z,7.10
2022-07-28T20:31:26.980Z,7.67
2022-07-28T20:33:55.882Z,6.90
2022-07-28T20:36:29.481Z,6.37
2022-07-28T20:38:58.181Z,6.30
2022-07-28T20:41:26.575Z,8.13
2022-07-28T20:44:26.226Z,6.50
2022-07-28T20:46:44.695Z,8.30
2022-07-28T20:49:13.206Z,8.30
2022-07-28T20:51:50.809Z,6.63
2022-07-28T20:54:21.109Z,7.80
2022-07-28T20:56:49.571Z,7.23
2022-07-28T20:59:19.610Z,7.40
2022-07-28T21:01:48.019Z,9.30
2022-07-28T21:04:16.928Z,6.73
2022-07-28T21:06:51.038Z,9.53
2022-07-28T21:09:21.281Z,6.43
2022-07-28T21:11:49.578Z,6.67
2022-07-28T21:14:19.521Z,7.43
2022-07-28T21:16:48.172Z,7.53
2022-07-28T21:19:16.505Z,6.90
2022-07-28T21:21:44.856Z,7.60
2022-07-28T21:24:13.593Z,10.27
2022-07-28T21:26:42.760Z,8.83
2022-07-28T21:32:02.326Z,6.43
2022-07-28T21:34:34.196Z,6.80
2022-07-28T21:37:02.928Z,7.10
2022-07-28T21:39:31.551Z,7.37
2022-07-28T21:42:00.071Z,8.57
2022-07-28T21:44:28.469Z,6.50
2022-07-28T21:46:58.234Z,8.07
2022-07-28T21:49:28.831Z,6.37
2022-07-28T21:51:57.195Z,7.53
2022-07-28T21:54:25.474Z,7.17
2022-07-28T21:56:53.811Z,7.40
2022-07-28T21:59:22.288Z,7.63
2022-07-28T22:01:50.689Z,7.47
2022-07-28T22:04:20.831Z,8.03
2022-07-28T22:06:49.322Z,7.03
2022-07-28T22:09:17.618Z,7.17
2022-07-28T22:11:45.977Z,7.27
2022-07-28T22:14:14.656Z,7.73
2022-07-28T22:16:43.094Z,7.13
2022-07-28T22:19:12.712Z,6.23
2022-07-28T22:21:42.319Z,8.03
2022-07-28T22:24:10.955Z,6.83
2022-07-28T22:26:39.283Z,7.57
2022-07-28T22:29:07.619Z,7.20
2022-07-28T22:31:35.866Z,7.17
2022-07-28T22:34:04.359Z,7.20
2022-07-28T22:36:33.997Z,9.53
2022-07-28T22:39:04.213Z,9.00
2022-07-28T22:41:32.572Z,7.10
2022-07-28T22:44:00.809Z,7.30
2022-07-28T22:46:29.205Z,6.33
2022-07-28T22:48:57.551Z,7.20
2022-07-28T22:51:25.836Z,6.97
2022-07-28T22:53:54.328Z,7.63
2022-07-28T22:56:24.242Z,7.00
2022-07-28T22:58:52.540Z,7.97
2022-07-28T23:01:20.895Z,7.80
2022-07-28T23:03:49.258Z,7.03
2022-07-28T23:06:17.533Z,7.37
2022-07-28T23:08:45.828Z,10.23
2022-07-28T23:11:14.372Z,7.63
2022-07-28T23:13:44.157Z,7.00
2022-07-28T23:16:17.221Z,7.03
2022-07-28T23:18:46.098Z,6.97
2022-07-28T23:21:14.262Z,7.00
2022-07-28T23:23:42.661Z,8.10
2022-07-28T23:26:10.899Z,7.00
2022-07-28T23:28:39.409Z,8.43
2022-07-28T23:31:09.031Z,7.53
2022-07-28T23:33:54.474Z,6.87
2022-07-28T23:36:26.434Z,6.40
2022-07-28T23:38:55.746Z,6.60
2022-07-28T23:41:24.564Z,7.03
2022-07-28T23:43:53.098Z,6.70
2022-07-28T23:46:23.116Z,8.03
2022-07-28T23:48:52.002Z,7.40
2022-07-28T23:51:21.343Z,7.43
2022-07-28T23:53:55.876Z,6.67
2022-07-28T23:56:24.935Z,7.50
2022-07-28T23:58:53.271Z,7.27
